sensor_id;sensor_type;location;lat;lon;timestamp;temperature;humidity
33093;DHT22;19456;46.104;12.908;2022-10-16T00:00:30;13.60;99.90
33093;DHT22;19456;46.104;12.908;2022-10-16T00:02:56;13.60;99.90
33093;DHT22;19456;46.104;12.908;2022-10-16T00:05:21;13.60;99.90
33093;DHT22;19456;46.104;12.908;2022-10-16T00:07:47;13.60;99.90
33093;DHT22;19456;46.104;12.908;2022-10-16T00:10:12;13.60;99.90
33093;DHT22;19456;46.104;12.908;2022-10-16T00:12:38;13.60;99.90
33093;DHT22;19456;46.104;12.908;2022-10-16T00:15:04;13.60;99.90
33093;DHT22;19456;46.104;12.908;2022-10-16T00:17:30;13.60;99.90
33093;DHT22;19456;46.104;12.908;2022-10-16T00:19:55;13.60;99.90
33093;DHT22;19456;46.104;12.908;2022-10-16T00:22:22;13.60;99.90
33093;DHT22;19456;46.104;12.908;2022-10-16T00:24:47;13.60;99.90
33093;DHT22;19456;46.104;12.908;2022-10-16T00:27:13;13.60;99.90
33093;DHT22;19456;46.104;12.908;2022-10-16T00:29:38;13.60;99.90
33093;DHT22;19456;46.104;12.908;2022-10-16T00:32:04;13.70;99.90
33093;DHT22;19456;46.104;12.908;2022-10-16T00:34:29;13.70;99.90
33093;DHT22;19456;46.104;12.908;2022-10-16T00:36:55;13.70;99.90
33093;DHT22;19456;46.104;12.908;2022-10-16T00:39:20;13.80;99.90
33093;DHT22;19456;46.104;12.908;2022-10-16T00:41:47;13.80;99.90
33093;DHT22;19456;46.104;12.908;2022-10-16T00:46:57;13.60;99.90
33093;DHT22;19456;46.104;12.908;2022-10-16T00:49:22;13.50;99.90
33093;DHT22;19456;46.104;12.908;2022-10-16T00:51:49;13.50;99.90
33093;DHT22;19456;46.104;12.908;2022-10-16T00:54:16;13.50;99.90
33093;DHT22;19456;46.104;12.908;2022-10-16T00:56:43;13.60;99.90
33093;DHT22;19456;46.104;12.908;2022-10-16T00:59:52;13.60;99.90
33093;DHT22;19456;46.104;12.908;2022-10-16T01:02:00;13.60;99.90
33093;DHT22;19456;46.104;12.908;2022-10-16T01:04:26;13.60;99.90
33093;DHT22;19456;46.104;12.908;2022-10-16T01:09:33;13.60;99.90
33093;DHT22;19456;46.104;12.908;2022-10-16T01:12:01;13.60;99.90
33093;DHT22;19456;46.104;12.908;2022-10-16T01:17:41;13.60;99.90
33093;DHT22;19456;46.104;12.908;2022-10-16T01:25:05;13.80;99.90
33093;DHT22;19456;46.104;12.908;2022-10-16T01:27:33;13.70;99.90
33093;DHT22;19456;46.104;12.908;2022-10-16T01:37:46;14.20;99.90
33093;DHT22;19456;46.104;12.908;2022-10-16T01:40:14;14.20;99.90
33093;DHT22;19456;46.104;12.908;2022-10-16T01:42:42;14.40;99.90
33093;DHT22;19456;46.104;12.908;2022-10-16T01:45:10;14.30;99.90
33093;DHT22;19456;46.104;12.908;2022-10-16T01:47:38;14.40;99.90
33093;DHT22;19456;46.104;12.908;2022-10-16T01:50:04;14.40;99.90
33093;DHT22;19456;46.104;12.908;2022-10-16T01:52:30;14.40;99.90
33093;DHT22;19456;46.104;12.908;2022-10-16T01:54:57;14.40;99.90
33093;DHT22;19456;46.104;12.908;2022-10-16T01:57:24;14.50;99.90
33093;DHT22;19456;46.104;12.908;2022-10-16T01:59:51;14.50;99.90
33093;DHT22;19456;46.104;12.908;2022-10-16T02:02:18;14.50;99.90
33093;DHT22;19456;46.104;12.908;2022-10-16T02:04:49;14.50;99.90
33093;DHT22;19456;46.104;12.908;2022-10-16T02:07:15;14.50;99.90
33093;DHT22;19456;46.104;12.908;2022-10-16T02:09:41;14.50;99.90
33093;DHT22;19456;46.104;12.908;2022-10-16T02:12:26;14.50;99.90
33093;DHT22;19456;46.104;12.908;2022-10-16T02:14:52;14.50;99.90
33093;DHT22;19456;46.104;12.908;2022-10-16T02:17:18;14.60;99.90
33093;DHT22;19456;46.104;12.908;2022-10-16T02:19:44;14.60;99.90
33093;DHT22;19456;46.104;12.908;2022-10-16T02:22:56;14.50;99.90
33093;DHT22;19456;46.104;12.908;2022-10-16T02:25:08;14.50;99.90
33093;DHT22;19456;46.104;12.908;2022-10-16T02:27:50;14.50;99.90
33093;DHT22;19456;46.104;12.908;2022-10-16T02:30:23;14.50;99.90
33093;DHT22;19456;46.104;12.908;2022-10-16T02:32:51;14.50;99.90
33093;DHT22;19456;46.104;12.908;2022-10-16T02:35:17;14.50;99.90
33093;DHT22;19456;46.104;12.908;2022-10-16T02:37:44;14.50;99.90
33093;DHT22;19456;46.104;12.908;2022-10-16T02:40:10;14.40;99.90
33093;DHT22;19456;46.104;12.908;2022-10-16T02:42:37;14.30;99.90
33093;DHT22;19456;46.104;12.908;2022-10-16T02:45:04;14.30;99.90
33093;DHT22;19456;46.104;12.908;2022-10-16T02:47:30;14.20;99.90
33093;DHT22;19456;46.104;12.908;2022-10-16T02:49:55;14.20;99.90
33093;DHT22;19456;46.104;12.908;2022-10-16T02:52:21;14.30;99.90
33093;DHT22;19456;46.104;12.908;2022-10-16T02:54:46;14.40;99.90
33093;DHT22;19456;46.104;12.908;2022-10-16T02:57:12;14.40;99.90
33093;DHT22;19456;46.104;12.908;2022-10-16T02:59:37;14.40;99.90
33093;DHT22;19456;46.104;12.908;2022-10-16T03:02:03;14.40;99.90
33093;DHT22;19456;46.104;12.908;2022-10-16T03:04:29;14.40;99.90
33093;DHT22;19456;46.104;12.908;2022-10-16T03:06:54;14.40;99.90
33093;DHT22;19456;46.104;12.908;2022-10-16T03:09:20;14.40;99.90
33093;DHT22;19456;46.104;12.908;2022-10-16T03:11:45;14.40;99.90
33093;DHT22;19456;46.104;12.908;2022-10-16T03:14:11;14.40;99.90
33093;DHT22;19456;46.104;12.908;2022-10-16T03:16:36;14.40;99.90
33093;DHT22;19456;46.104;12.908;2022-10-16T03:19:02;14.40;99.90
33093;DHT22;19456;46.104;12.908;2022-10-16T03:21:28;14.40;99.90
33093;DHT22;19456;46.104;12.908;2022-10-16T03:23:53;14.40;99.90
33093;DHT22;19456;46.104;12.908;2022-10-16T03:26:19;14.40;99.90
33093;DHT22;19456;46.104;12.908;2022-10-16T03:28:44;14.40;99.90
33093;DHT22;19456;46.104;12.908;2022-10-16T03:31:10;14.40;99.90
33093;DHT22;19456;46.104;12.908;2022-10-16T03:33:35;14.60;99.90
33093;DHT22;19456;46.104;12.908;2022-10-16T03:36:02;14.70;99.90
33093;DHT22;19456;46.104;12.908;2022-10-16T03:38:27;14.80;99.90
33093;DHT22;19456;46.104;12.908;2022-10-16T03:40:53;14.80;99.90
33093;DHT22;19456;46.104;12.908;2022-10-16T03:43:18;14.70;99.90
33093;DHT22;19456;46.104;12.908;2022-10-16T03:45:44;14.60;99.90
33093;DHT22;19456;46.104;12.908;2022-10-16T03:48:09;14.50;99.90
33093;DHT22;19456;46.104;12.908;2022-10-16T03:50:35;14.40;99.90
33093;DHT22;19456;46.104;12.908;2022-10-16T03:53:01;14.40;99.90
33093;DHT22;19456;46.104;12.908;2022-10-16T03:55:27;14.40;99.90
33093;DHT22;19456;46.104;12.908;2022-10-16T03:57:52;14.40;99.90
33093;DHT22;19456;46.104;12.908;2022-10-16T04:00:18;14.40;99.90
33093;DHT22;19456;46.104;12.908;2022-10-16T04:02:43;14.40;99.90
33093;DHT22;19456;46.104;12.908;2022-10-16T04:05:09;14.40;99.90
33093;DHT22;19456;46.104;12.908;2022-10-16T04:07:34;14.40;99.90
33093;DHT22;19456;46.104;12.908;2022-10-16T04:10:00;14.40;99.90
33093;DHT22;19456;46.104;12.908;2022-10-16T04:12:26;14.40;99.90
33093;DHT22;19456;46.104;12.908;2022-10-16T04:14:51;14.40;99.90
33093;DHT22;19456;46.104;12.908;2022-10-16T04:17:17;14.40;99.90
33093;DHT22;19456;46.104;12.908;2022-10-16T04:19:43;14.40;99.90
33093;DHT22;19456;46.104;12.908;2022-10-16T04:22:08;14.50;99.90
33093;DHT22;19456;46.104;12.908;2022-10-16T04:24:34;14.50;99.90
33093;DHT22;19456;46.104;12.908;2022-10-16T04:26:59;14.50;99.90
33093;DHT22;19456;46.104;12.908;2022-10-16T04:29:25;14.50;99.90
33093;DHT22;19456;46.104;12.908;2022-10-16T04:31:50;14.40;99.90
33093;DHT22;19456;46.104;12.908;2022-10-16T04:34:16;14.30;99.90
33093;DHT22;19456;46.104;12.908;2022-10-16T04:36:42;14.30;99.90
33093;DHT22;19456;46.104;12.908;2022-10-16T04:39:07;14.30;99.90
33093;DHT22;19456;46.104;12.908;2022-10-16T04:41:33;14.30;99.90
33093;DHT22;19456;46.104;12.908;2022-10-16T04:43:58;14.10;99.90
33093;DHT22;19456;46.104;12.908;2022-10-16T04:46:24;14.00;99.90
33093;DHT22;19456;46.104;12.908;2022-10-16T04:48:49;13.90;99.90
33093;DHT22;19456;46.104;12.908;2022-10-16T04:51:15;13.90;99.90
33093;DHT22;19456;46.104;12.908;2022-10-16T04:53:40;13.90;99.90
33093;DHT22;19456;46.104;12.908;2022-10-16T04:56:06;13.90;99.90
33093;DHT22;19456;46.104;12.908;2022-10-16T04:58:31;13.90;99.90
33093;DHT22;19456;46.104;12.908;2022-10-16T05:00:57;13.90;99.90
33093;DHT22;19456;46.104;12.908;2022-10-16T05:03:23;13.90;99.90
33093;DHT22;19456;46.104;12.908;2022-10-16T05:05:48;14.00;99.90
33093;DHT22;19456;46.104;12.908;2022-10-16T05:08:14;13.90;99.90
33093;DHT22;19456;46.104;12.908;2022-10-16T05:10:41;14.00;99.90
33093;DHT22;19456;46.104;12.908;2022-10-16T05:13:06;13.90;99.90
33093;DHT22;19456;46.104;12.908;2022-10-16T05:15:32;13.90;99.90
33093;DHT22;19456;46.104;12.908;2022-10-16T05:17:58;14.00;99.90
33093;DHT22;19456;46.104;12.908;2022-10-16T05:20:23;14.00;99.90
33093;DHT22;19456;46.104;12.908;2022-10-16T05:22:49;14.10;99.90
33093;DHT22;19456;46.104;12.908;2022-10-16T05:25:15;14.00;99.90
33093;DHT22;19456;46.104;12.908;2022-10-16T05:27:41;14.00;99.90
33093;DHT22;19456;46.104;12.908;2022-10-16T05:30:06;13.90;99.90
33093;DHT22;19456;46.104;12.908;2022-10-16T05:32:32;14.00;99.90
33093;DHT22;19456;46.104;12.908;2022-10-16T05:34:58;13.60;99.90
33093;DHT22;19456;46.104;12.908;2022-10-16T05:37:25;13.40;99.90
33093;DHT22;19456;46.104;12.908;2022-10-16T05:39:51;13.30;99.90
33093;DHT22;19456;46.104;12.908;2022-10-16T05:42:16;13.30;99.90
33093;DHT22;19456;46.104;12.908;2022-10-16T05:44:42;13.30;99.90
33093;DHT22;19456;46.104;12.908;2022-10-16T05:47:07;13.40;99.90
33093;DHT22;19456;46.104;12.908;2022-10-16T05:49:33;13.50;99.90
33093;DHT22;19456;46.104;12.908;2022-10-16T05:51:58;13.40;99.90
33093;DHT22;19456;46.104;12.908;2022-10-16T05:54:24;13.40;99.90
33093;DHT22;19456;46.104;12.908;2022-10-16T05:56:50;13.50;99.90
33093;DHT22;19456;46.104;12.908;2022-10-16T05:59:15;13.60;99.90
33093;DHT22;19456;46.104;12.908;2022-10-16T06:01:41;13.60;99.90
33093;DHT22;19456;46.104;12.908;2022-10-16T06:04:07;13.70;99.90
33093;DHT22;19456;46.104;12.908;2022-10-16T06:06:33;13.70;99.90
33093;DHT22;19456;46.104;12.908;2022-10-16T06:08:58;13.70;99.90
33093;DHT22;19456;46.104;12.908;2022-10-16T06:11:26;13.70;99.90
33093;DHT22;19456;46.104;12.908;2022-10-16T06:13:52;13.60;99.90
33093;DHT22;19456;46.104;12.908;2022-10-16T06:16:18;13.60;99.90
33093;DHT22;19456;46.104;12.908;2022-10-16T06:18:46;13.70;99.90
33093;DHT22;19456;46.104;12.908;2022-10-16T06:21:14;13.70;99.90
33093;DHT22;19456;46.104;12.908;2022-10-16T06:23:41;13.70;99.90
33093;DHT22;19456;46.104;12.908;2022-10-16T06:26:11;13.80;99.90
33093;DHT22;19456;46.104;12.908;2022-10-16T06:28:37;13.80;99.90
33093;DHT22;19456;46.104;12.908;2022-10-16T06:31:03;13.80;99.90
33093;DHT22;19456;46.104;12.908;2022-10-16T06:33:29;13.90;99.90
33093;DHT22;19456;46.104;12.908;2022-10-16T06:36:05;14.00;99.90
33093;DHT22;19456;46.104;12.908;2022-10-16T06:38:31;14.10;99.90
33093;DHT22;19456;46.104;12.908;2022-10-16T06:40:57;14.20;99.90
33093;DHT22;19456;46.104;12.908;2022-10-16T06:43:23;14.20;99.90
33093;DHT22;19456;46.104;12.908;2022-10-16T06:45:55;14.10;99.90
33093;DHT22;19456;46.104;12.908;2022-10-16T06:48:21;14.10;99.90
33093;DHT22;19456;46.104;12.908;2022-10-16T06:50:57;14.10;99.90
33093;DHT22;19456;46.104;12.908;2022-10-16T06:53:23;14.10;99.90
33093;DHT22;19456;46.104;12.908;2022-10-16T06:55:49;14.30;99.90
33093;DHT22;19456;46.104;12.908;2022-10-16T06:58:15;14.30;99.90
33093;DHT22;19456;46.104;12.908;2022-10-16T07:00:41;14.50;99.90
33093;DHT22;19456;46.104;12.908;2022-10-16T07:03:07;14.60;99.90
33093;DHT22;19456;46.104;12.908;2022-10-16T07:05:37;14.80;99.90
33093;DHT22;19456;46.104;12.908;2022-10-16T07:08:02;14.90;99.90
33093;DHT22;19456;46.104;12.908;2022-10-16T07:10:30;15.10;99.90
33093;DHT22;19456;46.104;12.908;2022-10-16T07:12:56;15.00;99.90
33093;DHT22;19456;46.104;12.908;2022-10-16T07:15:22;15.00;99.90
33093;DHT22;19456;46.104;12.908;2022-10-16T07:17:47;14.90;99.90
33093;DHT22;19456;46.104;12.908;2022-10-16T07:20:13;14.90;99.90
33093;DHT22;19456;46.104;12.908;2022-10-16T07:22:38;14.90;99.90
33093;DHT22;19456;46.104;12.908;2022-10-16T07:25:04;15.00;99.90
33093;DHT22;19456;46.104;12.908;2022-10-16T07:27:29;15.00;99.90
33093;DHT22;19456;46.104;12.908;2022-10-16T07:29:55;15.00;99.90
33093;DHT22;19456;46.104;12.908;2022-10-16T07:32:20;15.10;99.90
33093;DHT22;19456;46.104;12.908;2022-10-16T07:34:46;15.20;99.90
33093;DHT22;19456;46.104;12.908;2022-10-16T07:37:12;15.20;99.90
33093;DHT22;19456;46.104;12.908;2022-10-16T07:39:37;15.40;99.90
33093;DHT22;19456;46.104;12.908;2022-10-16T07:42:03;15.50;99.90
33093;DHT22;19456;46.104;12.908;2022-10-16T07:44:28;15.70;99.90
33093;DHT22;19456;46.104;12.908;2022-10-16T07:46:54;15.90;99.90
33093;DHT22;19456;46.104;12.908;2022-10-16T07:49:19;16.10;99.90
33093;DHT22;19456;46.104;12.908;2022-10-16T07:51:45;16.30;99.90
33093;DHT22;19456;46.104;12.908;2022-10-16T07:54:11;16.40;99.90
33093;DHT22;19456;46.104;12.908;2022-10-16T07:56:37;16.50;99.90
33093;DHT22;19456;46.104;12.908;2022-10-16T07:59:03;16.60;99.90
33093;DHT22;19456;46.104;12.908;2022-10-16T08:01:28;16.60;99.90
33093;DHT22;19456;46.104;12.908;2022-10-16T08:03:54;16.50;99.90
33093;DHT22;19456;46.104;12.908;2022-10-16T08:06:20;16.50;99.90
33093;DHT22;19456;46.104;12.908;2022-10-16T08:08:46;16.70;99.90
33093;DHT22;19456;46.104;12.908;2022-10-16T08:11:12;16.90;99.90
33093;DHT22;19456;46.104;12.908;2022-10-16T08:13:39;17.10;99.90
33093;DHT22;19456;46.104;12.908;2022-10-16T08:16:05;17.10;99.90
33093;DHT22;19456;46.104;12.908;2022-10-16T08:18:37;17.10;99.90
33093;DHT22;19456;46.104;12.908;2022-10-16T08:21:03;17.20;99.90
33093;DHT22;19456;46.104;12.908;2022-10-16T08:23:29;17.40;99.90
33093;DHT22;19456;46.104;12.908;2022-10-16T08:25:56;17.50;99.90
33093;DHT22;19456;46.104;12.908;2022-10-16T08:28:22;17.70;99.90
33093;DHT22;19456;46.104;12.908;2022-10-16T08:30:47;17.90;99.90
33093;DHT22;19456;46.104;12.908;2022-10-16T08:33:13;18.10;99.90
33093;DHT22;19456;46.104;12.908;2022-10-16T08:35:39;18.20;99.90
33093;DHT22;19456;46.104;12.908;2022-10-16T08:38:05;18.40;99.90
33093;DHT22;19456;46.104;12.908;2022-10-16T08:40:31;18.70;99.90
33093;DHT22;19456;46.104;12.908;2022-10-16T08:48:35;18.50;99.90
33093;DHT22;19456;46.104;12.908;2022-10-16T08:51:04;18.40;99.90
33093;DHT22;19456;46.104;12.908;2022-10-16T08:53:31;18.50;99.90
33093;DHT22;19456;46.104;12.908;2022-10-16T08:55:58;18.50;99.90
33093;DHT22;19456;46.104;12.908;2022-10-16T08:58:28;18.80;99.90
33093;DHT22;19456;46.104;12.908;2022-10-16T09:00:59;19.00;99.90
33093;DHT22;19456;46.104;12.908;2022-10-16T09:05:52;19.20;99.90
33093;DHT22;19456;46.104;12.908;2022-10-16T09:10:59;18.80;99.90
33093;DHT22;19456;46.104;12.908;2022-10-16T09:13:34;18.90;99.90
33093;DHT22;19456;46.104;12.908;2022-10-16T09:21:31;19.80;99.90
33093;DHT22;19456;46.104;12.908;2022-10-16T09:24:00;19.70;99.90
33093;DHT22;19456;46.104;12.908;2022-10-16T09:26:30;19.80;99.90
33093;DHT22;19456;46.104;12.908;2022-10-16T09:28:55;19.90;99.90
33093;DHT22;19456;46.104;12.908;2022-10-16T09:31:21;20.10;99.90
33093;DHT22;19456;46.104;12.908;2022-10-16T09:33:52;20.30;99.90
33093;DHT22;19456;46.104;12.908;2022-10-16T09:36:19;20.50;99.90
33093;DHT22;19456;46.104;12.908;2022-10-16T09:38:45;20.60;99.90
33093;DHT22;19456;46.104;12.908;2022-10-16T09:41:18;20.70;99.90
33093;DHT22;19456;46.104;12.908;2022-10-16T09:43:48;20.80;99.90
33093;DHT22;19456;46.104;12.908;2022-10-16T09:46:22;21.00;99.90
33093;DHT22;19456;46.104;12.908;2022-10-16T09:48:50;21.00;99.90
33093;DHT22;19456;46.104;12.908;2022-10-16T09:51:20;21.00;99.90
33093;DHT22;19456;46.104;12.908;2022-10-16T09:53:47;21.10;99.90
33093;DHT22;19456;46.104;12.908;2022-10-16T09:56:21;21.20;99.90
33093;DHT22;19456;46.104;12.908;2022-10-16T09:58:51;21.30;99.90
33093;DHT22;19456;46.104;12.908;2022-10-16T10:01:17;21.30;99.90
33093;DHT22;19456;46.104;12.908;2022-10-16T10:03:44;21.40;99.90
33093;DHT22;19456;46.104;12.908;2022-10-16T10:06:18;21.50;99.90
33093;DHT22;19456;46.104;12.908;2022-10-16T10:08:54;21.50;99.90
33093;DHT22;19456;46.104;12.908;2022-10-16T10:11:35;21.30;99.90
33093;DHT22;19456;46.104;12.908;2022-10-16T10:15:03;21.20;99.90
33093;DHT22;19456;46.104;12.908;2022-10-16T10:17:29;21.50;99.90
33093;DHT22;19456;46.104;12.908;2022-10-16T10:19:49;21.70;99.90
33093;DHT22;19456;46.104;12.908;2022-10-16T10:27:23;22.00;99.90
33093;DHT22;19456;46.104;12.908;2022-10-16T10:32:39;22.00;99.90
33093;DHT22;19456;46.104;12.908;2022-10-16T10:35:22;22.10;99.90
33093;DHT22;19456;46.104;12.908;2022-10-16T10:38:37;22.10;99.90
33093;DHT22;19456;46.104;12.908;2022-10-16T10:40:44;22.20;99.90
33093;DHT22;19456;46.104;12.908;2022-10-16T10:43:32;22.50;99.90
33093;DHT22;19456;46.104;12.908;2022-10-16T10:46:02;22.60;99.90
33093;DHT22;19456;46.104;12.908;2022-10-16T10:48:35;22.80;99.90
33093;DHT22;19456;46.104;12.908;2022-10-16T10:51:11;23.20;99.90
33093;DHT22;19456;46.104;12.908;2022-10-16T11:01:17;24.60;99.90
33093;DHT22;19456;46.104;12.908;2022-10-16T11:06:33;24.50;99.90
33093;DHT22;19456;46.104;12.908;2022-10-16T11:09:06;24.70;99.90
33093;DHT22;19456;46.104;12.908;2022-10-16T11:11:41;24.80;99.90
33093;DHT22;19456;46.104;12.908;2022-10-16T11:14:22;24.80;99.90
33093;DHT22;19456;46.104;12.908;2022-10-16T11:16:51;25.00;99.90
33093;DHT22;19456;46.104;12.908;2022-10-16T11:19:25;25.10;99.90
33093;DHT22;19456;46.104;12.908;2022-10-16T11:26:53;26.10;99.90
33093;DHT22;19456;46.104;12.908;2022-10-16T11:29:23;26.10;99.90
33093;DHT22;19456;46.104;12.908;2022-10-16T11:31:52;25.80;99.90
33093;DHT22;19456;46.104;12.908;2022-10-16T11:34:23;25.70;99.90
33093;DHT22;19456;46.104;12.908;2022-10-16T11:36:59;25.70;99.90
33093;DHT22;19456;46.104;12.908;2022-10-16T11:39:28;25.10;99.90
33093;DHT22;19456;46.104;12.908;2022-10-16T11:42:57;25.00;99.90
33093;DHT22;19456;46.104;12.908;2022-10-16T11:47:34;25.60;99.90
33093;DHT22;19456;46.104;12.908;2022-10-16T11:50:13;25.70;99.90
33093;DHT22;19456;46.104;12.908;2022-10-16T11:52:50;25.80;99.90
33093;DHT22;19456;46.104;12.908;2022-10-16T11:55:23;25.00;99.90
33093;DHT22;19456;46.104;12.908;2022-10-16T11:57:54;24.50;99.90
33093;DHT22;19456;46.104;12.908;2022-10-16T12:00:28;23.80;99.90
33093;DHT22;19456;46.104;12.908;2022-10-16T12:08:19;24.00;99.90
33093;DHT22;19456;46.104;12.908;2022-10-16T12:10:45;24.60;99.90
33093;DHT22;19456;46.104;12.908;2022-10-16T12:16:06;24.90;99.90
33093;DHT22;19456;46.104;12.908;2022-10-16T12:18:32;25.60;99.90
33093;DHT22;19456;46.104;12.908;2022-10-16T12:20:57;26.20;99.90
33093;DHT22;19456;46.104;12.908;2022-10-16T12:23:24;26.90;99.90
33093;DHT22;19456;46.104;12.908;2022-10-16T12:25:54;27.70;99.90
33093;DHT22;19456;46.104;12.908;2022-10-16T12:31:19;28.00;99.90
33093;DHT22;19456;46.104;12.908;2022-10-16T12:33:41;27.90;99.90
33093;DHT22;19456;46.104;12.908;2022-10-16T12:36:10;28.50;99.90
33093;DHT22;19456;46.104;12.908;2022-10-16T12:41:11;28.30;99.90
33093;DHT22;19456;46.104;12.908;2022-10-16T12:43:40;27.60;99.90
33093;DHT22;19456;46.104;12.908;2022-10-16T12:48:35;27.00;99.90
33093;DHT22;19456;46.104;12.908;2022-10-16T12:53:45;27.00;99.90
33093;DHT22;19456;46.104;12.908;2022-10-16T12:58:49;27.00;99.90
33093;DHT22;19456;46.104;12.908;2022-10-16T13:01:28;27.80;99.90
33093;DHT22;19456;46.104;12.908;2022-10-16T13:04:01;27.20;99.90
33093;DHT22;19456;46.104;12.908;2022-10-16T13:06:35;27.70;99.90
33093;DHT22;19456;46.104;12.908;2022-10-16T13:11:50;28.90;99.90
33093;DHT22;19456;46.104;12.908;2022-10-16T13:25:08;25.90;99.90
33093;DHT22;19456;46.104;12.908;2022-10-16T13:29:53;26.40;99.90
33093;DHT22;19456;46.104;12.908;2022-10-16T13:32:20;27.30;99.90
33093;DHT22;19456;46.104;12.908;2022-10-16T13:34:47;27.80;99.90
33093;DHT22;19456;46.104;12.908;2022-10-16T13:37:20;28.40;99.90
33093;DHT22;19456;46.104;12.908;2022-10-16T13:39:46;28.90;99.90
33093;DHT22;19456;46.104;12.908;2022-10-16T13:42:13;28.60;99.90
33093;DHT22;19456;46.104;12.908;2022-10-16T13:44:43;28.50;99.90
33093;DHT22;19456;46.104;12.908;2022-10-16T13:47:14;29.10;99.90
33093;DHT22;19456;46.104;12.908;2022-10-16T13:49:40;29.70;99.90
33093;DHT22;19456;46.104;12.908;2022-10-16T13:52:05;29.70;99.90
33093;DHT22;19456;46.104;12.908;2022-10-16T13:54:31;30.20;99.90
33093;DHT22;19456;46.104;12.908;2022-10-16T13:57:04;30.30;99.90
33093;DHT22;19456;46.104;12.908;2022-10-16T13:59:33;29.70;99.90
33093;DHT22;19456;46.104;12.908;2022-10-16T14:01:59;28.80;99.90
33093;DHT22;19456;46.104;12.908;2022-10-16T14:04:27;27.50;99.90
33093;DHT22;19456;46.104;12.908;2022-10-16T14:06:53;27.20;99.90
33093;DHT22;19456;46.104;12.908;2022-10-16T14:11:49;27.80;99.90
33093;DHT22;19456;46.104;12.908;2022-10-16T14:14:17;28.00;99.90
33093;DHT22;19456;46.104;12.908;2022-10-16T14:16:43;28.40;99.90
33093;DHT22;19456;46.104;12.908;2022-10-16T14:19:18;28.10;99.90
33093;DHT22;19456;46.104;12.908;2022-10-16T14:21:44;28.30;99.90
33093;DHT22;19456;46.104;12.908;2022-10-16T14:24:13;27.90;99.90
33093;DHT22;19456;46.104;12.908;2022-10-16T14:26:43;28.30;99.90
33093;DHT22;19456;46.104;12.908;2022-10-16T14:29:13;28.30;99.90
33093;DHT22;19456;46.104;12.908;2022-10-16T14:31:39;28.30;99.90
33093;DHT22;19456;46.104;12.908;2022-10-16T14:36:50;27.20;99.90
33093;DHT22;19456;46.104;12.908;2022-10-16T14:39:22;26.30;99.90
33093;DHT22;19456;46.104;12.908;2022-10-16T14:41:48;25.80;99.90
33093;DHT22;19456;46.104;12.908;2022-10-16T14:44:14;25.10;99.90
33093;DHT22;19456;46.104;12.908;2022-10-16T14:46:41;25.10;99.90
33093;DHT22;19456;46.104;12.908;2022-10-16T14:51:36;25.90;99.90
33093;DHT22;19456;46.104;12.908;2022-10-16T14:54:02;25.40;99.90
33093;DHT22;19456;46.104;12.908;2022-10-16T14:56:29;24.80;99.90
33093;DHT22;19456;46.104;12.908;2022-10-16T14:58:55;24.80;99.90
33093;DHT22;19456;46.104;12.908;2022-10-16T15:01:21;24.90;99.90
33093;DHT22;19456;46.104;12.908;2022-10-16T15:03:47;24.90;99.90
33093;DHT22;19456;46.104;12.908;2022-10-16T15:06:13;24.80;99.90
33093;DHT22;19456;46.104;12.908;2022-10-16T15:08:39;24.30;99.90
33093;DHT22;19456;46.104;12.908;2022-10-16T15:11:05;23.90;99.90
33093;DHT22;19456;46.104;12.908;2022-10-16T15:13:31;23.60;99.90
33093;DHT22;19456;46.104;12.908;2022-10-16T15:15:57;23.20;99.90
33093;DHT22;19456;46.104;12.908;2022-10-16T15:18:23;22.90;99.90
33093;DHT22;19456;46.104;12.908;2022-10-16T15:20:50;22.80;99.90
33093;DHT22;19456;46.104;12.908;2022-10-16T15:23:20;22.60;99.90
33093;DHT22;19456;46.104;12.908;2022-10-16T15:25:47;22.50;99.90
33093;DHT22;19456;46.104;12.908;2022-10-16T15:28:13;22.30;99.90
33093;DHT22;19456;46.104;12.908;2022-10-16T15:30:39;22.20;99.90
33093;DHT22;19456;46.104;12.908;2022-10-16T15:33:09;21.90;99.90
33093;DHT22;19456;46.104;12.908;2022-10-16T15:35:36;21.90;99.90
33093;DHT22;19456;46.104;12.908;2022-10-16T15:38:01;21.80;99.90
33093;DHT22;19456;46.104;12.908;2022-10-16T15:40:27;21.70;99.90
33093;DHT22;19456;46.104;12.908;2022-10-16T15:42:53;21.60;99.90
33093;DHT22;19456;46.104;12.908;2022-10-16T15:45:18;21.40;99.90
33093;DHT22;19456;46.104;12.908;2022-10-16T15:47:45;21.30;99.90
33093;DHT22;19456;46.104;12.908;2022-10-16T15:50:11;21.10;99.90
33093;DHT22;19456;46.104;12.908;2022-10-16T15:52:37;21.00;99.90
33093;DHT22;19456;46.104;12.908;2022-10-16T15:55:08;20.90;99.90
33093;DHT22;19456;46.104;12.908;2022-10-16T15:57:34;20.80;99.90
33093;DHT22;19456;46.104;12.908;2022-10-16T15:59:59;20.70;99.90
33093;DHT22;19456;46.104;12.908;2022-10-16T16:02:25;20.50;99.90
33093;DHT22;19456;46.104;12.908;2022-10-16T16:04:50;20.40;99.90
33093;DHT22;19456;46.104;12.908;2022-10-16T16:07:16;20.40;99.90
33093;DHT22;19456;46.104;12.908;2022-10-16T16:09:42;20.20;99.90
33093;DHT22;19456;46.104;12.908;2022-10-16T16:12:09;20.20;99.90
33093;DHT22;19456;46.104;12.908;2022-10-16T16:14:34;20.10;99.90
33093;DHT22;19456;46.104;12.908;2022-10-16T16:17:00;20.00;99.90
33093;DHT22;19456;46.104;12.908;2022-10-16T16:19:26;19.90;99.90
33093;DHT22;19456;46.104;12.908;2022-10-16T16:21:51;19.80;99.90
33093;DHT22;19456;46.104;12.908;2022-10-16T16:24:17;19.70;99.90
33093;DHT22;19456;46.104;12.908;2022-10-16T16:26:42;19.60;99.90
33093;DHT22;19456;46.104;12.908;2022-10-16T16:29:12;19.50;99.90
33093;DHT22;19456;46.104;12.908;2022-10-16T16:31:38;19.60;99.90
33093;DHT22;19456;46.104;12.908;2022-10-16T16:34:04;19.60;99.90
33093;DHT22;19456;46.104;12.908;2022-10-16T16:36:30;19.50;99.90
33093;DHT22;19456;46.104;12.908;2022-10-16T16:38:56;19.40;99.90
33093;DHT22;19456;46.104;12.908;2022-10-16T16:41:23;19.30;99.90
33093;DHT22;19456;46.104;12.908;2022-10-16T16:43:48;19.20;99.90
33093;DHT22;19456;46.104;12.908;2022-10-16T16:46:16;19.00;99.90
33093;DHT22;19456;46.104;12.908;2022-10-16T16:48:42;18.90;99.90
33093;DHT22;19456;46.104;12.908;2022-10-16T16:51:08;18.80;99.90
33093;DHT22;19456;46.104;12.908;2022-10-16T16:53:35;18.60;99.90
33093;DHT22;19456;46.104;12.908;2022-10-16T16:56:04;18.70;99.90
33093;DHT22;19456;46.104;12.908;2022-10-16T16:58:31;18.60;99.90
33093;DHT22;19456;46.104;12.908;2022-10-16T17:00:57;18.50;99.90
33093;DHT22;19456;46.104;12.908;2022-10-16T17:03:29;18.50;99.90
33093;DHT22;19456;46.104;12.908;2022-10-16T17:06:04;18.40;99.90